Time;durP1;ratioP1;P1;durP2;ratioP2;P2;SDS_P1;SDS_P2;PMS_P1;PMS_P2;Temp;Humidity;BMP_temperature;BMP_pressure;BME280_temperature;BME280_humidity;BME280_pressure;Samples;Min_cycle;Max_cycle;Signal;HPM_P1;HPM_P2
2023/04/13 00:00:38;;;;;;;2.50;2.08;;;14.90;54.30;;;;;;5108179;27;45342;-67
2023/04/13 00:03:07;;;;;;;2.30;1.98;;;14.90;54.30;;;;;;5108389;27;45339;-68
2023/04/13 00:05:34;;;;;;;2.38;2.10;;;14.80;54.80;;;;;;5107749;27;45554;-68
2023/04/13 00:08:01;;;;;;;2.17;2.00;;;14.80;54.20;;;;;;5107798;27;45378;-67
2023/04/13 00:10:28;;;;;;;1.80;1.60;;;14.80;54.30;;;;;;5107750;27;45291;-67
2023/04/13 00:12:57;;;;;;;2.80;1.83;;;14.80;54.30;;;;;;5108102;27;45300;-67
2023/04/13 00:15:25;;;;;;;2.95;1.80;;;14.70;54.30;;;;;;5107582;27;46567;-68
2023/04/13 00:17:52;;;;;;;2.78;2.17;;;14.70;54.30;;;;;;5107680;27;45402;-68
2023/04/13 00:20:19;;;;;;;3.80;2.03;;;14.70;54.40;;;;;;5107782;27;45144;-67
2023/04/13 00:22:46;;;;;;;2.20;1.88;;;14.70;54.40;;;;;;5107980;27;45214;-67
2023/04/13 00:25:14;;;;;;;2.22;2.03;;;14.70;54.40;;;;;;5107267;27;47651;-67
2023/04/13 00:27:41;;;;;;;2.70;1.88;;;14.70;54.40;;;;;;5107596;27;45401;-68
2023/04/13 00:30:08;;;;;;;2.05;1.85;;;14.60;54.40;;;;;;5107567;27;45296;-67
2023/04/13 00:32:37;;;;;;;2.25;1.63;;;14.60;54.40;;;;;;5107684;27;45415;-67
2023/04/13 00:35:04;;;;;;;2.28;1.80;;;14.60;54.30;;;;;;5107327;27;45548;-67
2023/04/13 00:37:31;;;;;;;2.28;1.95;;;14.60;54.40;;;;;;5107377;27;45241;-67
2023/04/13 00:39:58;;;;;;;2.42;1.88;;;14.60;54.40;;;;;;5107668;27;45383;-68
2023/04/13 00:42:25;;;;;;;3.22;1.95;;;14.60;54.30;;;;;;5107607;27;45274;-68
2023/04/13 00:44:52;;;;;;;1.42;1.33;;;14.60;54.30;;;;;;5107101;27;45418;-68
2023/04/13 00:47:21;;;;;;;2.60;1.75;;;14.50;54.30;;;;;;5107128;27;45349;-67
2023/04/13 00:49:49;;;;;;;2.88;1.83;;;14.50;54.20;;;;;;5107135;27;45469;-67
2023/04/13 00:52:17;;;;;;;2.42;1.67;;;14.50;54.30;;;;;;5107604;27;45466;-67
2023/04/13 00:54:43;;;;;;;1.83;1.73;;;14.50;54.30;;;;;;5106870;27;46653;-68
2023/04/13 00:57:10;;;;;;;2.78;1.55;;;14.50;54.30;;;;;;5107115;27;45362;-67
2023/04/13 00:59:37;;;;;;;2.17;1.85;;;14.50;54.30;;;;;;5107126;27;45350;-67
2023/04/13 01:02:06;;;;;;;3.30;1.92;;;14.50;54.30;;;;;;5107248;27;45434;-67
2023/04/13 01:04:33;;;;;;;1.70;1.50;;;14.50;54.30;;;;;;5106780;27;46679;-67
2023/04/13 01:07:07;;;;;;;2.33;1.77;;;14.50;54.30;;;;;;5106957;27;45521;-68
2023/04/13 01:09:36;;;;;;;1.60;1.50;;;14.40;54.20;;;;;;5106946;27;45280;-68
2023/04/13 01:12:07;;;;;;;3.13;1.80;;;14.40;54.20;;;;;;5107117;27;45415;-67
2023/04/13 01:14:36;;;;;;;2.92;1.77;;;14.40;54.30;;;;;;5106406;27;45556;-68
2023/04/13 01:17:06;;;;;;;2.47;1.65;;;14.40;54.30;;;;;;5106637;27;45361;-68
2023/04/13 01:19:50;;;;;;;1.60;1.50;;;14.40;54.30;;;;;;5106908;27;45260;-68
2023/04/13 01:22:19;;;;;;;2.38;1.50;;;14.40;54.20;;;;;;5106963;27;45437;-67
2023/04/13 01:24:59;;;;;;;1.40;1.30;;;14.30;54.20;;;;;;5106478;27;46678;-67
2023/04/13 01:27:41;;;;;;;1.88;1.55;;;14.30;54.20;;;;;;5106619;27;45277;-68
2023/04/13 01:30:09;;;;;;;1.60;1.45;;;14.30;54.20;;;;;;5106660;27;45374;-68
2023/04/13 01:32:36;;;;;;;1.40;1.30;;;14.30;54.20;;;;;;5107040;27;45283;-67
2023/04/13 01:35:03;;;;;;;2.10;1.52;;;14.30;54.20;;;;;;5106372;27;46413;-67
2023/04/13 01:37:30;;;;;;;1.77;1.48;;;14.30;54.20;;;;;;5103948;27;45267;-67
2023/04/13 01:39:57;;;;;;;1.98;1.30;;;14.30;54.20;;;;;;5106591;27;45400;-68
2023/04/13 01:42:24;;;;;;;2.08;1.60;;;14.30;54.20;;;;;;5106844;27;45497;-67
2023/04/13 01:44:52;;;;;;;1.63;1.50;;;14.30;54.20;;;;;;5105770;27;45471;-67
2023/04/13 01:47:20;;;;;;;2.13;1.70;;;14.20;54.10;;;;;;5106438;27;45406;-67
2023/04/13 01:49:48;;;;;;;3.28;1.63;;;14.20;54.10;;;;;;5106249;27;45239;-68
2023/04/13 01:52:15;;;;;;;2.45;1.40;;;14.20;54.20;;;;;;5106890;27;45369;-67
2023/04/13 01:54:43;;;;;;;1.70;1.42;;;14.20;54.10;;;;;;5106090;27;46382;-67
2023/04/13 01:57:11;;;;;;;1.20;1.08;;;14.20;54.10;;;;;;5106301;27;45343;-67
2023/04/13 01:59:38;;;;;;;1.65;1.30;;;14.20;54.20;;;;;;5106337;27;45353;-67
2023/04/13 02:02:06;;;;;;;2.58;1.42;;;14.20;54.10;;;;;;5106502;27;45183;-67
2023/04/13 02:04:33;;;;;;;1.35;1.25;;;14.20;54.10;;;;;;5105957;27;45566;-67
2023/04/13 02:07:00;;;;;;;1.52;1.25;;;14.10;54.10;;;;;;5106036;27;45377;-67
2023/04/13 02:09:28;;;;;;;1.52;1.42;;;14.10;54.00;;;;;;5106411;27;45374;-67
2023/04/13 02:11:55;;;;;;;1.38;1.25;;;14.10;54.00;;;;;;5106388;27;45200;-67
2023/04/13 02:14:21;;;;;;;1.65;1.30;;;14.10;54.10;;;;;;5105901;27;46664;-67
2023/04/13 02:16:48;;;;;;;1.40;1.30;;;14.10;54.10;;;;;;5105925;27;45249;-67
2023/04/13 02:19:16;;;;;;;1.83;1.50;;;14.10;54.10;;;;;;5106110;27;45319;-67
2023/04/13 02:21:43;;;;;;;3.10;1.40;;;14.10;54.00;;;;;;5106219;27;45274;-67
2023/04/13 02:24:10;;;;;;;2.28;1.23;;;14.10;54.00;;;;;;5105795;27;46767;-67
2023/04/13 02:26:37;;;;;;;2.13;1.20;;;14.10;54.60;;;;;;5105731;27;45253;-67
2023/04/13 02:29:04;;;;;;;1.02;0.93;;;14.00;53.90;;;;;;5109512;27;45356;-67
2023/04/13 02:31:32;;;;;;;1.45;1.35;;;14.00;54.00;;;;;;5109599;27;45409;-67
2023/04/13 02:33:59;;;;;;;1.65;1.30;;;14.00;54.00;;;;;;5109316;27;45413;-67
2023/04/13 02:36:27;;;;;;;1.30;1.10;;;14.00;53.90;;;;;;5109164;27;45261;-67
2023/04/13 02:38:54;;;;;;;1.48;1.20;;;14.00;54.00;;;;;;5109460;27;45312;-67
2023/04/13 02:41:21;;;;;;;2.70;1.00;;;14.00;53.90;;;;;;5109659;27;45334;-67
2023/04/13 02:43:50;;;;;;;2.15;1.35;;;14.00;53.90;;;;;;5109071;27;46648;-67
2023/04/13 02:46:17;;;;;;;2.03;1.42;;;14.00;53.90;;;;;;5108960;27;45349;-67
2023/04/13 02:48:44;;;;;;;1.30;0.90;;;13.90;54.40;;;;;;5109340;27;45314;-67
2023/04/13 02:51:11;;;;;;;1.67;1.00;;;13.90;53.90;;;;;;5109163;27;45390;-67
2023/04/13 02:53:40;;;;;;;1.95;1.20;;;13.90;53.90;;;;;;5108887;27;45429;-67
2023/04/13 02:56:08;;;;;;;1.02;1.00;;;13.90;53.90;;;;;;5108919;27;45256;-67
2023/04/13 02:58:35;;;;;;;1.40;1.20;;;13.90;53.90;;;;;;5109242;27;45411;-67
2023/04/13 03:01:02;;;;;;;1.65;1.10;;;13.90;53.90;;;;;;5109192;27;45427;-67
2023/04/13 03:03:29;;;;;;;2.63;1.00;;;13.90;53.90;;;;;;5108845;27;45469;-67
2023/04/13 03:05:56;;;;;;;2.10;1.20;;;13.90;53.90;;;;;;5108838;27;45537;-67
2023/04/13 03:08:24;;;;;;;1.73;1.27;;;13.90;53.90;;;;;;5109094;27;45334;-67
2023/04/13 03:10:53;;;;;;;1.23;1.13;;;13.90;53.90;;;;;;5108978;27;45433;-67
2023/04/13 03:13:20;;;;;;;1.00;0.90;;;13.90;53.90;;;;;;5108659;27;46833;-67
2023/04/13 03:15:47;;;;;;;3.55;1.13;;;13.90;53.90;;;;;;5108696;27;45179;-67
2023/04/13 03:18:15;;;;;;;1.55;0.88;;;13.90;53.80;;;;;;5108860;27;45217;-67
2023/04/13 03:20:42;;;;;;;1.08;0.90;;;13.80;53.80;;;;;;5108846;27;45596;-67
2023/04/13 03:23:09;;;;;;;1.38;1.00;;;13.80;53.70;;;;;;5108539;27;45411;-67
2023/04/13 03:25:36;;;;;;;1.65;1.00;;;13.80;53.80;;;;;;5108620;27;45312;-67
2023/04/13 03:28:04;;;;;;;1.05;1.00;;;13.80;54.40;;;;;;5108697;27;45264;-67
2023/04/13 03:30:31;;;;;;;0.93;0.90;;;13.80;53.80;;;;;;5109089;27;45342;-67
2023/04/13 03:32:58;;;;;;;1.35;1.00;;;13.80;53.80;;;;;;5108334;27;46737;-67
2023/04/13 03:35:26;;;;;;;1.50;1.00;;;13.80;53.70;;;;;;5108474;27;45312;-67
2023/04/13 03:37:53;;;;;;;0.73;0.73;;;13.80;53.80;;;;;;5108314;27;45202;-67
2023/04/13 03:40:19;;;;;;;1.20;1.00;;;13.80;53.80;;;;;;5108891;27;45286;-67
2023/04/13 03:42:46;;;;;;;0.95;0.90;;;13.80;53.80;;;;;;5107990;27;46947;-67
2023/04/13 03:45:14;;;;;;;0.60;0.60;;;13.80;53.70;;;;;;5107902;27;45361;-67
2023/04/13 03:47:41;;;;;;;1.13;0.80;;;13.70;53.70;;;;;;5108472;27;45311;-67
2023/04/13 03:50:09;;;;;;;1.35;0.90;;;13.70;53.70;;;;;;5108343;27;45372;-67
2023/04/13 03:52:36;;;;;;;1.38;0.82;;;13.70;53.70;;;;;;5108059;27;46346;-67
2023/04/13 03:55:02;;;;;;;0.80;0.80;;;13.70;53.70;;;;;;5108068;27;45315;-67
2023/04/13 03:57:29;;;;;;;1.05;0.95;;;13.70;53.70;;;;;;5108130;27;45347;-67
2023/04/13 03:59:56;;;;;;;0.68;0.68;;;13.70;53.70;;;;;;5108542;27;45451;-68
2023/04/13 04:02:24;;;;;;;1.13;0.80;;;13.70;53.70;;;;;;5107815;27;45796;-67
2023/04/13 04:04:51;;;;;;;0.85;0.85;;;13.70;53.70;;;;;;5107646;27;45312;-67
2023/04/13 04:07:21;;;;;;;1.00;0.90;;;13.70;53.70;;;;;;5108014;27;45395;-67
2023/04/13 04:09:48;;;;;;;0.90;0.70;;;13.70;53.70;;;;;;5108028;27;45461;-67
2023/04/13 04:12:15;;;;;;;0.80;0.80;;;13.70;53.70;;;;;;5107758;27;45323;-67
2023/04/13 04:14:42;;;;;;;1.30;1.00;;;13.70;53.70;;;;;;5107669;27;45466;-67
2023/04/13 04:17:09;;;;;;;1.42;0.98;;;13.70;53.60;;;;;;5107909;27;45223;-67
2023/04/13 04:19:37;;;;;;;1.58;0.90;;;13.70;53.60;;;;;;5107941;27;45249;-67
2023/04/13 04:22:05;;;;;;;2.97;0.93;;;13.70;53.60;;;;;;5107490;27;47367;-67
2023/04/13 04:24:33;;;;;;;0.80;0.80;;;13.70;53.60;;;;;;5107523;27;45337;-67
2023/04/13 04:27:00;;;;;;;1.08;0.80;;;13.60;53.60;;;;;;5107683;27;45382;-67
2023/04/13 04:29:32;;;;;;;1.52;0.95;;;13.60;54.20;;;;;;5107942;27;45200;-67
2023/04/13 04:32:00;;;;;;;0.98;0.80;;;13.60;53.60;;;;;;5107211;27;46548;-67
2023/04/13 04:34:26;;;;;;;1.10;0.77;;;13.60;53.60;;;;;;5107373;27;45252;-67
2023/04/13 04:36:54;;;;;;;0.93;0.80;;;13.60;53.60;;;;;;5107408;27;45287;-67
2023/04/13 04:39:22;;;;;;;0.70;0.70;;;13.60;53.60;;;;;;5107652;27;45229;-69
2023/04/13 04:41:53;;;;;;;1.08;0.80;;;13.60;53.60;;;;;;5107265;27;45291;-69
2023/04/13 04:44:23;;;;;;;2.58;0.82;;;13.50;53.50;;;;;;5107232;27;45588;-69
2023/04/13 04:46:51;;;;;;;1.90;0.85;;;13.50;53.60;;;;;;5107265;27;45412;-68
2023/04/13 04:49:20;;;;;;;0.95;0.90;;;13.50;53.60;;;;;;5107353;27;45233;-69
2023/04/13 04:51:47;;;;;;;2.40;0.77;;;13.50;53.50;;;;;;5106479;27;45310;-69
2023/04/13 04:54:17;;;;;;;0.80;0.77;;;13.50;53.50;;;;;;5107005;27;45244;-68
2023/04/13 04:56:43;;;;;;;0.60;0.60;;;13.50;53.50;;;;;;5107032;27;45381;-69
2023/04/13 04:59:10;;;;;;;1.35;0.80;;;13.50;53.40;;;;;;5104712;27;45276;-69
2023/04/13 05:01:37;;;;;;;1.83;0.75;;;13.50;53.40;;;;;;5106984;27;45387;-67
2023/04/13 05:04:04;;;;;;;1.92;0.90;;;13.50;53.40;;;;;;5106836;27;45701;-67
2023/04/13 05:06:32;;;;;;;0.65;0.65;;;13.50;53.40;;;;;;5107536;27;45268;-69
2023/04/13 05:09:00;;;;;;;0.60;0.60;;;13.50;53.40;;;;;;5107383;27;45308;-67
2023/04/13 05:11:29;;;;;;;1.45;0.50;;;13.50;53.40;;;;;;5106699;27;45476;-67
2023/04/13 05:13:55;;;;;;;0.70;0.70;;;13.50;53.40;;;;;;5106832;27;45444;-67
2023/04/13 05:16:22;;;;;;;0.88;0.70;;;13.50;53.40;;;;;;5106806;27;45256;-67
2023/04/13 05:18:49;;;;;;;0.60;0.60;;;13.50;53.30;;;;;;5107117;27;45318;-67
2023/04/13 05:21:16;;;;;;;0.90;0.70;;;13.50;53.30;;;;;;5106884;27;46303;-67
2023/04/13 05:23:43;;;;;;;0.63;0.50;;;13.50;53.30;;;;;;5106699;27;45381;-67
2023/04/13 05:26:10;;;;;;;1.27;0.55;;;13.50;53.30;;;;;;5106520;27;45261;-67
2023/04/13 05:28:39;;;;;;;0.95;0.60;;;13.50;53.30;;;;;;5106939;27;45255;-67
2023/04/13 05:31:07;;;;;;;0.77;0.70;;;13.50;53.20;;;;;;5106260;27;45257;-67
2023/04/13 05:33:34;;;;;;;2.72;0.80;;;13.50;53.30;;;;;;5106317;27;45291;-67
2023/04/13 05:36:01;;;;;;;2.17;0.80;;;13.50;52.90;;;;;;5106536;27;45322;-67
2023/04/13 05:38:27;;;;;;;2.55;1.05;;;13.50;52.50;;;;;;5106892;27;45114;-67
2023/04/13 05:40:54;;;;;;;1.15;0.60;;;13.50;52.40;;;;;;5106270;27;46303;-67
2023/04/13 05:43:21;;;;;;;3.55;0.85;;;13.50;52.10;;;;;;5106322;27;45352;-66
2023/04/13 05:45:49;;;;;;;1.83;0.70;;;13.40;52.10;;;;;;5106229;27;45510;-66
2023/04/13 05:48:16;;;;;;;4.53;0.65;;;13.40;51.90;;;;;;5106964;27;45267;-67
2023/04/13 05:50:43;;;;;;;1.13;0.60;;;13.40;51.80;;;;;;5106016;27;45224;-66
2023/04/13 05:53:10;;;;;;;1.67;0.60;;;13.40;51.70;;;;;;5106219;27;45339;-66
2023/04/13 05:55:37;;;;;;;3.45;1.13;;;13.40;52.30;;;;;;5106282;27;45463;-66
2023/04/13 05:58:03;;;;;;;5.65;1.45;;;13.40;51.70;;;;;;5106370;27;45423;-66
2023/04/13 06:00:31;;;;;;;1.48;0.90;;;13.40;51.40;;;;;;5106069;27;45269;-66
2023/04/13 06:03:00;;;;;;;3.50;0.90;;;13.40;51.40;;;;;;5109612;27;45270;-67
2023/04/13 06:05:27;;;;;;;2.95;1.02;;;13.40;51.30;;;;;;5109818;27;45275;-67
2023/04/13 06:07:54;;;;;;;1.95;0.88;;;13.40;51.20;;;;;;5110131;27;45571;-67
2023/04/13 06:10:21;;;;;;;4.70;0.73;;;13.40;51.20;;;;;;5109604;27;46378;-67
2023/04/13 06:12:49;;;;;;;7.28;1.15;;;13.40;51.20;;;;;;5109613;27;45196;-68
2023/04/13 06:15:17;;;;;;;1.42;0.65;;;13.40;51.40;;;;;;5109604;27;45367;-68
2023/04/13 06:17:43;;;;;;;3.53;0.70;;;13.40;51.50;;;;;;5109804;27;45338;-68
2023/04/13 06:20:13;;;;;;;6.10;1.30;;;13.40;51.60;;;;;;5109471;27;46749;-68
2023/04/13 06:22:40;;;;;;;3.47;0.90;;;13.40;51.60;;;;;;5109818;27;45368;-69
2023/04/13 06:25:09;;;;;;;3.35;0.80;;;13.40;51.60;;;;;;5109349;27;45456;-69
2023/04/13 06:27:36;;;;;;;5.68;0.90;;;13.40;51.70;;;;;;5109607;27;45489;-66
2023/04/13 06:30:03;;;;;;;1.20;0.68;;;13.40;51.70;;;;;;5109250;27;46718;-69
2023/04/13 06:32:31;;;;;;;3.40;1.00;;;13.40;51.70;;;;;;5109332;27;45253;-69
2023/04/13 06:34:57;;;;;;;1.40;0.73;;;13.40;51.70;;;;;;5109242;27;45371;-69
2023/04/13 06:37:26;;;;;;;1.83;0.68;;;13.40;51.70;;;;;;5109453;27;45327;-67
2023/04/13 06:39:53;;;;;;;2.25;0.82;;;13.40;51.70;;;;;;5109094;27;45534;-69
2023/04/13 06:42:20;;;;;;;2.28;0.70;;;13.40;51.80;;;;;;5109179;27;45183;-69
2023/04/13 06:44:46;;;;;;;2.08;0.90;;;13.50;51.80;;;;;;5108736;27;45287;-69
2023/04/13 06:47:13;;;;;;;4.35;0.82;;;13.50;51.80;;;;;;5109425;27;45245;-68
2023/04/13 06:49:40;;;;;;;2.00;0.88;;;13.50;51.70;;;;;;5109004;27;45302;-68
2023/04/13 06:52:07;;;;;;;2.85;0.82;;;13.50;51.70;;;;;;5109058;27;45358;-69
2023/04/13 06:54:37;;;;;;;1.55;0.77;;;13.50;51.50;;;;;;5109203;27;45359;-68
2023/04/13 06:57:04;;;;;;;4.38;0.88;;;13.50;51.30;;;;;;5109196;27;45417;-68
2023/04/13 06:59:31;;;;;;;1.48;0.68;;;13.50;51.20;;;;;;5108820;27;45312;-68
2023/04/13 07:01:58;;;;;;;4.50;0.80;;;13.50;51.30;;;;;;5108896;27;45327;-68
2023/04/13 07:04:25;;;;;;;3.80;0.82;;;13.50;51.50;;;;;;5109021;27;45335;-66
2023/04/13 07:06:52;;;;;;;1.13;0.73;;;13.50;51.50;;;;;;5109030;27;45463;-66
2023/04/13 07:09:19;;;;;;;4.30;0.88;;;13.50;51.70;;;;;;5108404;27;46416;-66
2023/04/13 07:11:47;;;;;;;3.47;0.63;;;13.50;51.80;;;;;;5108601;27;45407;-66
2023/04/13 07:14:14;;;;;;;2.65;0.77;;;13.50;51.70;;;;;;5108254;27;45263;-66
2023/04/13 07:16:41;;;;;;;6.20;0.80;;;13.50;51.70;;;;;;5108804;27;45314;-67
2023/04/13 07:19:07;;;;;;;1.02;0.60;;;13.50;51.80;;;;;;5108473;27;46435;-67
2023/04/13 07:21:34;;;;;;;2.88;0.85;;;13.50;51.80;;;;;;5108247;27;45345;-66
2023/04/13 07:24:01;;;;;;;2.33;0.85;;;13.50;51.80;;;;;;5108749;27;45528;-67
2023/04/13 07:26:28;;;;;;;2.58;0.82;;;13.50;51.80;;;;;;5108536;27;45253;-67
2023/04/13 07:28:56;;;;;;;1.75;0.77;;;13.60;51.80;;;;;;5108226;27;46326;-67
2023/04/13 07:31:23;;;;;;;2.05;0.77;;;13.60;51.70;;;;;;5108380;27;45324;-66
2023/04/13 07:33:50;;;;;;;2.83;0.98;;;13.60;51.70;;;;;;5108520;27;45287;-67
2023/04/13 07:36:16;;;;;;;2.25;0.60;;;13.60;51.70;;;;;;5105849;27;45424;-67
2023/04/13 07:38:43;;;;;;;2.92;0.80;;;13.60;51.50;;;;;;5107958;27;45473;-67
2023/04/13 07:41:10;;;;;;;2.60;0.65;;;13.70;51.60;;;;;;5108463;27;45288;-67
2023/04/13 07:43:37;;;;;;;3.05;0.45;;;13.70;51.50;;;;;;5108076;27;45331;-67
2023/04/13 07:46:10;;;;;;;4.05;0.73;;;13.60;51.50;;;;;;5107900;27;45317;-66
2023/04/13 07:48:37;;;;;;;3.63;0.82;;;13.70;51.50;;;;;;5107984;27;46844;-67
2023/04/13 07:51:04;;;;;;;1.48;0.90;;;13.70;51.50;;;;;;5107894;27;45361;-66
2023/04/13 07:53:31;;;;;;;2.40;0.80;;;13.70;51.50;;;;;;5107929;27;45432;-67
2023/04/13 07:55:58;;;;;;;1.58;0.60;;;13.70;51.50;;;;;;5108983;27;45465;-66
2023/04/13 07:58:25;;;;;;;3.00;0.93;;;13.70;51.60;;;;;;5121639;27;45317;-68
2023/04/13 08:00:51;;;;;;;1.67;0.90;;;13.70;51.60;;;;;;5118610;27;45298;-67
2023/04/13 08:03:20;;;;;;;4.03;0.82;;;13.70;51.30;;;;;;5107826;27;45450;-67
2023/04/13 08:05:46;;;;;;;1.77;0.73;;;13.70;51.10;;;;;;5109327;27;45383;-67
2023/04/13 08:08:13;;;;;;;3.40;1.00;;;13.70;51.00;;;;;;5107306;27;45211;-66
2023/04/13 08:10:40;;;;;;;3.38;1.08;;;13.70;51.30;;;;;;5107686;27;45254;-66
2023/04/13 08:13:07;;;;;;;2.95;0.75;;;13.60;51.30;;;;;;5107695;27;45273;-66
2023/04/13 08:15:34;;;;;;;1.13;0.90;;;13.60;51.40;;;;;;5107706;27;45317;-66
2023/04/13 08:18:02;;;;;;;2.58;1.17;;;13.60;51.40;;;;;;5107485;27;45495;-66
2023/04/13 08:20:30;;;;;;;2.70;0.88;;;13.60;51.40;;;;;;5107341;27;45356;-66
2023/04/13 08:22:58;;;;;;;4.18;0.88;;;13.60;51.40;;;;;;5107749;27;45308;-66
2023/04/13 08:25:25;;;;;;;3.15;1.20;;;13.60;51.40;;;;;;5106313;27;45424;-66
2023/04/13 08:27:52;;;;;;;6.78;1.10;;;13.70;51.50;;;;;;5107230;27;45420;-66
2023/04/13 08:30:18;;;;;;;3.58;0.80;;;13.70;51.50;;;;;;5107291;27;45294;-66
2023/04/13 08:32:45;;;;;;;2.63;0.80;;;13.70;51.50;;;;;;5108013;27;45287;-67
2023/04/13 08:35:12;;;;;;;3.78;0.90;;;13.70;51.40;;;;;;5122260;27;45428;-66
2023/04/13 08:37:40;;;;;;;1.25;0.68;;;13.70;51.50;;;;;;5126025;27;46381;-66
2023/04/13 08:40:10;;;;;;;1.50;0.70;;;13.70;51.50;;;;;;5127836;27;45311;-66
2023/04/13 08:42:37;;;;;;;2.63;0.70;;;13.80;51.40;;;;;;5126451;27;45386;-66
2023/04/13 08:45:05;;;;;;;2.95;0.93;;;13.80;51.40;;;;;;5127730;27;45338;-66
2023/04/13 08:47:32;;;;;;;2.72;0.70;;;13.80;51.40;;;;;;5125839;27;45305;-66
2023/04/13 08:49:59;;;;;;;2.25;0.70;;;13.80;51.30;;;;;;5127976;27;45310;-67
2023/04/13 08:52:26;;;;;;;1.67;0.88;;;13.80;51.30;;;;;;5118366;27;45161;-66
2023/04/13 08:54:56;;;;;;;2.92;0.90;;;13.90;51.90;;;;;;5107232;27;45227;-66
2023/04/13 08:57:23;;;;;;;2.60;0.90;;;13.90;51.30;;;;;;5107984;27;46396;-66
2023/04/13 08:59:50;;;;;;;1.73;0.60;;;13.90;51.30;;;;;;5106811;27;45466;-66
2023/04/13 09:02:17;;;;;;;3.45;1.00;;;13.90;51.20;;;;;;5113673;27;45346;-66
2023/04/13 09:04:44;;;;;;;2.40;0.70;;;13.90;51.10;;;;;;5127695;27;45325;-66
2023/04/13 09:07:13;;;;;;;2.65;0.95;;;14.00;51.10;;;;;;5125637;27;45487;-66
2023/04/13 09:09:41;;;;;;;1.88;0.88;;;14.00;51.10;;;;;;5127419;27;45243;-66
2023/04/13 09:12:09;;;;;;;2.90;0.80;;;14.00;51.10;;;;;;5122336;27;45145;-66
2023/04/13 09:14:37;;;;;;;3.30;0.77;;;14.00;51.10;;;;;;5107141;27;45311;-66
2023/04/13 09:17:04;;;;;;;1.73;0.88;;;14.00;51.10;;;;;;5107573;27;45483;-66
2023/04/13 09:19:31;;;;;;;3.67;0.77;;;14.00;51.10;;;;;;5107633;27;45274;-66
2023/04/13 09:21:58;;;;;;;2.13;0.80;;;14.10;51.20;;;;;;5108918;27;45420;-66
2023/04/13 09:24:26;;;;;;;4.35;0.73;;;14.10;51.10;;;;;;5126035;27;45453;-66
2023/04/13 09:26:52;;;;;;;1.60;0.85;;;14.10;51.10;;;;;;5126457;27;47594;-66
2023/04/13 09:29:22;;;;;;;2.05;1.00;;;14.10;51.00;;;;;;5123830;27;45310;-66
2023/04/13 09:31:49;;;;;;;2.72;0.90;;;14.20;51.10;;;;;;5127201;27;45367;-66
2023/04/13 09:34:26;;;;;;;5.05;1.08;;;14.10;51.10;;;;;;5114941;27;45393;-66
2023/04/13 09:36:54;;;;;;;1.90;0.85;;;14.10;51.00;;;;;;5105659;27;46323;-66
2023/04/13 09:39:24;;;;;;;0.80;0.73;;;14.20;51.10;;;;;;5109834;27;45208;-66
2023/04/13 09:41:52;;;;;;;2.47;0.70;;;14.20;51.20;;;;;;5127073;27;45344;-66
2023/04/13 09:44:23;;;;;;;2.80;0.70;;;14.20;51.20;;;;;;5125039;27;45609;-66
2023/04/13 09:46:57;;;;;;;1.80;0.68;;;14.20;51.10;;;;;;5108843;27;46741;-66
2023/04/13 09:49:25;;;;;;;2.42;0.80;;;14.30;51.20;;;;;;5107079;27;45480;-67
2023/04/13 09:51:51;;;;;;;2.38;0.90;;;14.30;51.20;;;;;;5126929;27;45306;-66
2023/04/13 09:54:38;;;;;;;1.23;0.70;;;14.30;51.20;;;;;;5119129;27;45523;-66
2023/04/13 09:57:05;;;;;;;3.47;0.95;;;14.30;51.10;;;;;;5092807;27;45512;-66
2023/04/13 09:59:34;;;;;;;3.22;1.05;;;14.30;51.10;;;;;;5106141;27;45303;-66
2023/04/13 10:02:02;;;;;;;1.33;0.63;;;14.40;51.10;;;;;;5111194;27;45356;-67
2023/04/13 10:04:28;;;;;;;2.78;0.75;;;14.40;51.10;;;;;;5115260;27;45252;-66
2023/04/13 10:06:56;;;;;;;2.95;1.05;;;14.40;51.10;;;;;;5107118;27;47724;-66
2023/04/13 10:09:25;;;;;;;1.60;0.98;;;14.40;51.10;;;;;;5105932;27;45284;-66
2023/04/13 10:11:52;;;;;;;2.00;0.57;;;14.40;51.00;;;;;;5108230;27;45284;-66
2023/04/13 10:14:21;;;;;;;3.33;0.80;;;14.50;51.10;;;;;;5099472;27;45295;-67
2023/04/13 10:17:26;;;;;;;3.83;1.08;;;14.50;51.10;;;;;;5085333;27;45245;-66
2023/04/13 10:19:53;;;;;;;1.63;0.60;;;14.50;51.00;;;;;;5090815;27;45314;-67
2023/04/13 10:22:22;;;;;;;2.00;0.70;;;14.60;51.00;;;;;;5107227;27;45381;-66
2023/04/13 10:24:49;;;;;;;2.10;0.75;;;14.60;51.00;;;;;;5106027;27;45415;-67
2023/04/13 10:27:17;;;;;;;2.30;1.13;;;14.70;51.10;;;;;;5109172;27;45461;-67
2023/04/13 10:29:45;;;;;;;2.92;0.73;;;14.70;51.00;;;;;;5126646;27;45287;-66
2023/04/13 10:32:20;;;;;;;0.82;0.82;;;14.70;51.00;;;;;;5124830;27;45459;-67
2023/04/13 10:34:48;;;;;;;2.90;0.50;;;14.80;51.00;;;;;;5126454;27;45364;-67
2023/04/13 10:37:19;;;;;;;1.45;0.43;;;14.80;51.00;;;;;;5123560;27;45610;-67
2023/04/13 10:39:47;;;;;;;1.40;0.82;;;14.80;51.00;;;;;;5105524;27;45385;-67
2023/04/13 10:42:14;;;;;;;0.68;0.60;;;14.80;51.00;;;;;;5106881;27;45369;-67
2023/04/13 10:44:44;;;;;;;2.63;0.77;;;14.80;51.00;;;;;;5105395;27;45233;-67
2023/04/13 10:47:12;;;;;;;1.88;0.70;;;14.90;50.90;;;;;;5106870;27;45330;-67
2023/04/13 10:49:39;;;;;;;1.70;0.90;;;14.90;50.80;;;;;;5124737;27;45312;-66
2023/04/13 10:52:08;;;;;;;1.33;0.73;;;14.90;50.90;;;;;;5109608;27;45272;-67
2023/04/13 10:54:35;;;;;;;2.63;0.90;;;14.90;50.90;;;;;;5109483;27;45366;-67
2023/04/13 10:57:05;;;;;;;2.42;0.80;;;15.00;50.80;;;;;;5108943;27;47632;-67
2023/04/13 10:59:42;;;;;;;1.10;0.60;;;15.00;50.80;;;;;;5129492;27;45237;-67
2023/04/13 11:02:13;;;;;;;1.27;0.77;;;15.00;50.80;;;;;;5129523;27;45288;-66
2023/04/13 11:04:40;;;;;;;1.30;0.93;;;15.10;50.90;;;;;;5126501;27;46592;-67
2023/04/13 11:07:11;;;;;;;0.77;0.68;;;15.10;50.80;;;;;;5129609;27;46748;-67
2023/04/13 11:09:38;;;;;;;1.85;0.60;;;15.10;50.70;;;;;;5109906;27;45400;-67
2023/04/13 11:12:07;;;;;;;1.90;0.60;;;15.20;50.60;;;;;;5108883;27;45264;-67
2023/04/13 11:14:35;;;;;;;2.33;0.80;;;15.20;50.60;;;;;;5110067;27;45620;-67
2023/04/13 11:17:01;;;;;;;1.05;0.73;;;15.20;50.50;;;;;;5108524;27;46640;-67
2023/04/13 11:19:28;;;;;;;8.68;1.25;;;15.30;50.60;;;;;;5117170;27;45529;-68
2023/04/13 11:21:56;;;;;;;6.05;1.10;;;15.30;50.50;;;;;;5088393;27;45277;-67
2023/04/13 11:24:28;;;;;;;2.92;0.75;;;15.30;49.90;;;;;;5106398;27;45831;-67
2023/04/13 11:26:56;;;;;;;2.72;1.02;;;15.30;49.60;;;;;;5113257;27;45410;-67
2023/04/13 11:29:23;;;;;;;8.45;1.98;;;15.30;49.10;;;;;;5114908;27;45175;-67
2023/04/13 11:31:50;;;;;;;3.05;0.70;;;15.30;49.40;;;;;;5112657;27;45510;-66
2023/04/13 11:34:27;;;;;;;4.40;0.85;;;15.30;50.30;;;;;;5088044;27;45576;-66
2023/04/13 11:37:00;;;;;;;3.80;1.05;;;15.30;49.90;;;;;;5111346;27;46595;-67
2023/04/13 11:39:30;;;;;;;4.97;1.00;;;15.30;49.90;;;;;;5120554;27;45505;-67
2023/04/13 11:41:57;;;;;;;5.57;1.30;;;15.30;49.90;;;;;;5117587;27;45243;-67
2023/04/13 11:44:24;;;;;;;1.27;1.00;;;15.30;49.30;;;;;;5105762;27;45411;-66
2023/04/13 11:46:52;;;;;;;3.08;0.70;;;15.20;49.70;;;;;;5122823;27;45470;-66
2023/04/13 11:49:20;;;;;;;6.30;1.10;;;15.20;50.60;;;;;;5109002;27;45470;-66
2023/04/13 11:51:47;;;;;;;6.40;1.30;;;15.20;49.70;;;;;;5111053;27;45221;-66
2023/04/13 11:54:15;;;;;;;5.43;1.33;;;15.20;49.50;;;;;;5119634;27;45579;-67
2023/04/13 11:56:44;;;;;;;1.13;1.00;;;15.10;50.10;;;;;;5107383;27;45760;-66
2023/04/13 11:59:11;;;;;;;2.42;0.80;;;15.10;49.50;;;;;;5108213;27;45461;-66
2023/04/13 12:01:39;;;;;;;5.05;1.08;;;15.10;50.20;;;;;;5106447;27;45429;-67
2023/04/13 12:04:06;;;;;;;3.97;1.00;;;15.10;50.30;;;;;;5124726;27;45310;-67
2023/04/13 12:06:33;;;;;;;6.20;1.30;;;15.10;50.40;;;;;;5126238;27;46412;-69
2023/04/13 12:09:00;;;;;;;6.75;1.73;;;15.10;50.60;;;;;;5109252;27;45447;-67
2023/04/13 12:11:35;;;;;;;3.85;1.10;;;15.10;50.70;;;;;;5107399;27;45335;-68
2023/04/13 12:14:04;;;;;;;3.78;1.42;;;15.10;50.80;;;;;;5108189;27;45295;-68
2023/04/13 12:16:32;;;;;;;3.45;0.93;;;15.10;51.00;;;;;;5107604;27;45811;-68
2023/04/13 12:19:05;;;;;;;3.60;1.05;;;15.10;51.10;;;;;;5106264;27;45408;-70
2023/04/13 12:21:32;;;;;;;11.90;1.30;;;15.00;51.20;;;;;;5104604;27;45380;-69
2023/04/13 12:23:59;;;;;;;4.20;1.05;;;15.00;51.50;;;;;;5106100;27;45482;-69
2023/04/13 12:26:31;;;;;;;4.53;1.00;;;15.00;51.80;;;;;;5101606;27;45445;-68
2023/04/13 12:28:58;;;;;;;4.22;1.00;;;15.00;52.00;;;;;;5106519;27;45403;-67
2023/04/13 12:31:32;;;;;;;6.25;1.35;;;15.00;52.00;;;;;;5107554;27;45316;-68
2023/04/13 12:33:58;;;;;;;7.10;1.35;;;15.10;52.00;;;;;;5107782;27;45424;-67
2023/04/13 12:36:27;;;;;;;2.40;1.00;;;15.10;52.10;;;;;;5107075;27;45428;-68
2023/04/13 12:38:54;;;;;;;8.10;1.10;;;15.10;52.10;;;;;;5107033;27;45285;-67
2023/04/13 12:41:20;;;;;;;7.38;1.20;;;15.10;52.10;;;;;;5107272;27;45291;-67
2023/04/13 12:43:47;;;;;;;6.18;1.20;;;15.10;52.10;;;;;;5107397;27;45291;-67
2023/04/13 12:46:14;;;;;;;4.45;1.25;;;15.10;52.10;;;;;;5106797;27;46353;-68
2023/04/13 12:48:42;;;;;;;4.80;1.10;;;15.20;52.10;;;;;;5107206;27;45430;-67
2023/04/13 12:51:09;;;;;;;3.05;1.00;;;15.20;52.10;;;;;;5107277;27;45202;-67